createdAt,value
2023-02-09T00:01:13.963Z,14.45
2023-02-09T00:03:41.776Z,15.50
2023-02-09T00:06:09.936Z,14.33
2023-02-09T00:08:37.401Z,14.18
2023-02-09T00:11:13.862Z,12.50
2023-02-09T00:13:43.480Z,13.38
2023-02-09T00:16:11.137Z,12.57
2023-02-09T00:18:38.552Z,12.87
2023-02-09T00:21:07.411Z,13.95
2023-02-09T00:23:36.359Z,13.15
2023-02-09T00:26:13.547Z,12.75
2023-02-09T00:28:44.322Z,11.85
2023-02-09T00:31:12.853Z,12.97
2023-02-09T00:33:40.957Z,11.98
2023-02-09T00:36:11.341Z,13.00
2023-02-09T00:38:38.786Z,10.80
2023-02-09T00:41:06.099Z,13.25
2023-02-09T00:43:33.693Z,11.53
2023-02-09T00:46:01.141Z,11.43
2023-02-09T00:48:28.658Z,13.23
2023-02-09T00:50:56.820Z,11.88
2023-02-09T00:53:24.264Z,10.98
2023-02-09T00:55:51.639Z,12.03
2023-02-09T00:58:19.414Z,11.43
2023-02-09T01:00:47.211Z,12.10
2023-02-09T01:03:14.697Z,10.85
2023-02-09T01:05:42.274Z,12.77
2023-02-09T01:08:09.694Z,12.17
2023-02-09T01:10:38.079Z,11.32
2023-02-09T01:13:05.666Z,11.65
2023-02-09T01:15:33.008Z,12.82
2023-02-09T01:18:00.412Z,12.20
2023-02-09T01:20:28.078Z,11.10
2023-02-09T01:22:55.471Z,11.63
2023-02-09T01:25:22.828Z,11.32
2023-02-09T01:27:50.284Z,12.07
2023-02-09T01:30:18.445Z,11.75
2023-02-09T01:32:45.813Z,11.43
2023-02-09T01:35:13.074Z,11.45
2023-02-09T01:37:40.417Z,11.70
2023-02-09T01:40:08.792Z,10.27
2023-02-09T01:42:36.280Z,10.25
2023-02-09T01:45:30.435Z,11.87
2023-02-09T01:48:01.723Z,11.73
2023-02-09T01:50:31.496Z,11.52
2023-02-09T01:52:58.758Z,10.80
2023-02-09T01:55:28.240Z,10.77
2023-02-09T01:58:04.168Z,11.63
2023-02-09T02:00:31.511Z,10.00
2023-02-09T02:03:05.026Z,11.35
2023-02-09T02:05:35.043Z,10.13
2023-02-09T02:08:30.616Z,10.82
2023-02-09T02:10:58.084Z,10.63
2023-02-09T02:13:25.588Z,11.23
2023-02-09T02:16:07.006Z,10.65
2023-02-09T02:19:16.262Z,9.18
2023-02-09T02:21:58.812Z,9.52
2023-02-09T02:24:31.788Z,10.20
2023-02-09T02:27:05.817Z,11.02
2023-02-09T02:29:55.083Z,10.70
2023-02-09T02:32:25.105Z,9.80
2023-02-09T02:35:03.304Z,8.52
2023-02-09T02:37:40.548Z,10.13
2023-02-09T02:40:26.169Z,9.77
2023-02-09T02:43:02.251Z,10.40
2023-02-09T02:45:48.896Z,10.48
2023-02-09T02:48:36.599Z,9.68
2023-02-09T02:51:25.192Z,8.07
2023-02-09T02:53:54.590Z,10.18
2023-02-09T02:56:28.547Z,10.35
2023-02-09T02:58:57.481Z,9.52
2023-02-09T03:01:26.237Z,9.48
2023-02-09T03:03:53.628Z,11.13
2023-02-09T03:06:20.882Z,10.00
2023-02-09T03:08:50.465Z,10.23
2023-02-09T03:11:19.200Z,9.00
2023-02-09T03:14:14.305Z,8.63
2023-02-09T03:16:50.041Z,8.37
2023-02-09T03:19:26.425Z,9.85
2023-02-09T03:22:17.923Z,8.88
2023-02-09T03:25:01.655Z,8.07
2023-02-09T03:27:32.278Z,7.75
2023-02-09T03:30:01.090Z,9.40
2023-02-09T03:32:28.454Z,7.13
2023-02-09T03:34:55.993Z,8.00
2023-02-09T03:37:23.618Z,10.65
2023-02-09T03:39:51.015Z,8.05
2023-02-09T03:42:19.192Z,10.17
2023-02-09T03:44:46.642Z,6.90
2023-02-09T03:47:13.986Z,8.93
2023-02-09T03:49:41.655Z,8.20
2023-02-09T03:52:11.025Z,8.80
2023-02-09T03:54:38.553Z,9.87
2023-02-09T03:57:06.032Z,7.03
2023-02-09T03:59:37.714Z,9.43
2023-02-09T04:02:07.000Z,8.52
2023-02-09T04:04:34.340Z,9.35
2023-02-09T04:07:01.698Z,9.27
2023-02-09T04:09:29.111Z,10.18
2023-02-09T04:11:56.591Z,10.45
2023-02-09T04:14:23.965Z,10.27
2023-02-09T04:16:51.365Z,9.20
2023-02-09T04:19:18.625Z,10.50
2023-02-09T04:21:46.051Z,10.68
2023-02-09T04:24:13.417Z,11.30
2023-02-09T04:26:40.743Z,12.98
2023-02-09T04:29:08.075Z,10.45
2023-02-09T04:31:35.501Z,10.27
2023-02-09T04:34:02.783Z,10.52
2023-02-09T04:36:30.216Z,11.50
2023-02-09T04:38:57.586Z,14.18
2023-02-09T04:41:25.032Z,11.45
2023-02-09T04:43:52.348Z,14.33
2023-02-09T04:46:19.757Z,10.95
2023-02-09T04:48:47.099Z,15.13
2023-02-09T04:51:14.465Z,15.32
2023-02-09T04:53:41.767Z,15.90
2023-02-09T04:56:09.420Z,14.93
2023-02-09T04:58:55.163Z,13.32
2023-02-09T05:01:23.456Z,12.18
2023-02-09T05:03:51.156Z,11.23
2023-02-09T05:06:18.553Z,10.50
2023-02-09T05:08:45.924Z,10.53
2023-02-09T05:11:13.371Z,9.73
2023-02-09T05:13:40.822Z,11.35
2023-02-09T05:16:09.223Z,14.52
2023-02-09T05:18:36.644Z,10.18
2023-02-09T05:21:04.112Z,13.77
2023-02-09T05:23:31.406Z,11.60
2023-02-09T05:25:58.824Z,13.13
2023-02-09T05:28:26.348Z,15.27
2023-02-09T05:30:54.089Z,11.82
2023-02-09T05:33:22.203Z,13.10
2023-02-09T05:35:50.946Z,17.30
2023-02-09T05:38:18.493Z,17.52
2023-02-09T05:40:46.108Z,18.05
2023-02-09T05:43:14.105Z,17.45
2023-02-09T05:45:41.858Z,15.63
2023-02-09T05:48:09.155Z,15.15
2023-02-09T05:50:36.622Z,12.32
2023-02-09T05:53:08.716Z,11.30
2023-02-09T05:55:41.726Z,13.15
2023-02-09T05:58:09.655Z,13.13
2023-02-09T06:00:37.014Z,15.40
2023-02-09T06:03:04.489Z,12.00
2023-02-09T06:05:32.239Z,19.55
2023-02-09T06:07:59.768Z,18.17
2023-02-09T06:10:27.143Z,17.17
2023-02-09T06:12:54.954Z,13.88
2023-02-09T06:15:22.717Z,14.00
2023-02-09T06:17:50.250Z,12.95
2023-02-09T06:20:17.934Z,13.63
2023-02-09T06:22:45.329Z,14.43
2023-02-09T06:25:13.017Z,13.98
2023-02-09T06:27:40.485Z,15.15
2023-02-09T06:30:11.657Z,15.48
2023-02-09T06:32:39.000Z,16.67
2023-02-09T06:35:07.818Z,19.07
2023-02-09T06:37:35.449Z,17.73
2023-02-09T06:40:05.067Z,15.70
2023-02-09T06:42:46.842Z,14.20
2023-02-09T06:45:15.828Z,14.48
2023-02-09T06:47:46.511Z,16.03
2023-02-09T06:50:15.795Z,15.77
2023-02-09T06:52:43.631Z,13.85
2023-02-09T06:55:11.314Z,14.70
2023-02-09T06:57:39.787Z,15.35
2023-02-09T07:00:08.827Z,14.10
2023-02-09T07:02:36.406Z,14.30
2023-02-09T07:05:06.005Z,16.50
2023-02-09T07:07:33.308Z,15.65
2023-02-09T07:10:01.172Z,16.48
2023-02-09T07:12:28.645Z,16.47
2023-02-09T07:14:56.533Z,16.95
2023-02-09T07:17:26.456Z,18.77
2023-02-09T07:19:56.280Z,17.75
2023-02-09T07:22:24.172Z,18.42
2023-02-09T07:24:52.395Z,19.37
2023-02-09T07:27:20.126Z,18.52
2023-02-09T07:29:47.619Z,18.95
2023-02-09T07:32:15.188Z,19.95
2023-02-09T07:34:42.707Z,21.33
2023-02-09T07:37:10.192Z,24.10
2023-02-09T07:39:37.979Z,21.25
2023-02-09T07:42:05.899Z,19.52
2023-02-09T07:44:54.853Z,17.85
2023-02-09T07:47:22.833Z,18.65
2023-02-09T07:49:50.272Z,18.77
2023-02-09T07:52:20.931Z,17.98
2023-02-09T07:54:50.580Z,18.13
2023-02-09T07:57:18.048Z,20.95
2023-02-09T08:00:18.799Z,21.02
2023-02-09T08:02:49.275Z,19.03
2023-02-09T08:05:38.738Z,18.95
2023-02-09T08:08:06.369Z,18.20
2023-02-09T08:10:36.488Z,16.08
2023-02-09T08:13:04.201Z,16.38
2023-02-09T08:15:43.431Z,17.53
2023-02-09T08:18:16.669Z,16.33
2023-02-09T08:20:44.311Z,14.63
2023-02-09T08:23:21.161Z,12.68
2023-02-09T08:25:51.741Z,13.02
2023-02-09T08:28:19.803Z,12.87
2023-02-09T08:30:48.020Z,14.55
2023-02-09T08:33:16.162Z,12.55
2023-02-09T08:35:44.030Z,12.27
2023-02-09T08:38:12.176Z,12.40
2023-02-09T08:40:43.426Z,10.93
2023-02-09T08:43:11.492Z,10.65
2023-02-09T08:45:40.550Z,11.35
2023-02-09T08:48:11.679Z,10.40
2023-02-09T08:50:39.647Z,9.45
2023-02-09T08:53:07.063Z,10.60
2023-02-09T08:55:37.121Z,10.68
2023-02-09T08:58:05.134Z,8.63
2023-02-09T09:00:35.634Z,7.63
2023-02-09T09:03:06.534Z,5.20
2023-02-09T09:05:35.002Z,9.23
2023-02-09T09:08:02.822Z,8.43
2023-02-09T09:10:30.812Z,8.07
2023-02-09T09:13:01.190Z,8.85
2023-02-09T09:15:28.827Z,7.75
2023-02-09T09:17:56.272Z,10.27
2023-02-09T09:20:23.656Z,10.43
2023-02-09T09:22:51.095Z,10.25
2023-02-09T09:25:19.954Z,8.35
2023-02-09T09:27:47.270Z,9.05
2023-02-09T09:30:14.928Z,9.70
2023-02-09T09:32:42.330Z,8.60
2023-02-09T09:35:09.904Z,10.27
2023-02-09T09:37:37.421Z,9.60
2023-02-09T09:40:05.051Z,10.10
2023-02-09T09:42:39.581Z,9.50
2023-02-09T09:45:08.281Z,9.50
2023-02-09T09:47:39.754Z,10.15
2023-02-09T09:50:18.275Z,9.70
2023-02-09T09:52:49.121Z,9.45
2023-02-09T09:55:27.771Z,9.00
2023-02-09T09:58:06.714Z,8.50
2023-02-09T10:00:39.173Z,8.48
2023-02-09T10:03:20.211Z,7.15
2023-02-09T10:05:53.010Z,6.72
2023-02-09T10:08:26.605Z,10.43
2023-02-09T10:11:08.589Z,7.30
2023-02-09T10:13:44.570Z,6.05
2023-02-09T10:16:17.613Z,7.05
2023-02-09T10:18:45.764Z,7.05
2023-02-09T10:21:14.962Z,4.13
2023-02-09T10:24:11.298Z,6.93
2023-02-09T10:26:40.504Z,4.55
2023-02-09T10:29:11.380Z,3.88
2023-02-09T10:31:40.350Z,6.40
2023-02-09T10:34:14.152Z,5.93
2023-02-09T10:36:54.872Z,6.82
2023-02-09T10:39:30.491Z,5.60
2023-02-09T10:42:01.923Z,4.72
2023-02-09T10:44:34.105Z,6.20
2023-02-09T10:47:21.080Z,7.40
2023-02-09T10:50:02.233Z,6.60
2023-02-09T10:52:34.684Z,3.67
2023-02-09T10:55:16.336Z,3.25
2023-02-09T10:57:44.538Z,5.25
2023-02-09T11:00:56.259Z,5.53
2023-02-09T11:04:14.612Z,5.10
2023-02-09T11:07:02.133Z,7.20
2023-02-09T11:09:38.468Z,6.00
2023-02-09T11:12:34.208Z,5.97
2023-02-09T11:15:19.138Z,7.03
2023-02-09T11:18:40.417Z,5.28
2023-02-09T11:22:18.371Z,6.20
2023-02-09T11:25:45.763Z,16.08
2023-02-09T11:28:57.896Z,5.90
2023-02-09T11:31:46.884Z,6.17
2023-02-09T11:34:59.152Z,6.00
2023-02-09T11:37:56.695Z,7.40
2023-02-09T11:40:51.604Z,7.10
2023-02-09T11:43:28.739Z,8.65
2023-02-09T11:46:03.832Z,6.37
2023-02-09T11:48:41.155Z,7.55
2023-02-09T11:51:24.406Z,7.00
2023-02-09T11:54:04.826Z,5.25
2023-02-09T11:56:32.333Z,3.80
2023-02-09T11:59:07.098Z,7.60
2023-02-09T12:02:29.443Z,7.55
2023-02-09T12:05:06.983Z,4.35
2023-02-09T12:08:11.888Z,5.90
2023-02-09T12:10:59.932Z,6.28
2023-02-09T12:13:42.468Z,3.70
2023-02-09T12:16:18.503Z,4.70
2023-02-09T12:18:46.773Z,6.78
2023-02-09T12:21:14.727Z,6.82
2023-02-09T12:23:45.513Z,4.13
2023-02-09T12:26:16.132Z,4.27
2023-02-09T12:28:47.690Z,4.82
2023-02-09T12:31:22.277Z,6.43
2023-02-09T12:33:51.049Z,6.05
2023-02-09T12:36:37.691Z,6.40
2023-02-09T12:39:24.812Z,6.50
2023-02-09T12:41:52.478Z,6.57
2023-02-09T12:44:20.043Z,5.63
2023-02-09T12:46:53.173Z,18.38
2023-02-09T12:49:29.721Z,5.03
2023-02-09T12:52:04.386Z,6.10
2023-02-09T12:54:42.671Z,4.85
2023-02-09T12:57:16.516Z,3.50
2023-02-09T13:00:03.863Z,4.45
2023-02-09T13:02:40.055Z,5.55
2023-02-09T13:05:33.252Z,4.63
2023-02-09T13:08:16.360Z,5.30
2023-02-09T13:11:26.146Z,4.72
2023-02-09T13:13:55.425Z,5.78
2023-02-09T13:16:23.084Z,6.78
2023-02-09T13:19:18.890Z,6.37
2023-02-09T13:22:16.363Z,3.17
2023-02-09T13:24:59.429Z,5.13
2023-02-09T13:27:27.665Z,3.67
2023-02-09T13:29:56.600Z,6.32
2023-02-09T13:32:38.036Z,5.17
2023-02-09T13:35:08.425Z,4.82
2023-02-09T13:37:44.730Z,6.93
2023-02-09T13:40:25.735Z,5.72
2023-02-09T13:43:06.830Z,5.10
2023-02-09T13:45:34.436Z,5.07
2023-02-09T13:48:04.375Z,6.10
2023-02-09T13:50:33.882Z,4.75
2023-02-09T13:53:11.271Z,3.80
2023-02-09T13:55:40.074Z,4.32
2023-02-09T13:58:08.737Z,5.43
2023-02-09T14:00:40.267Z,4.75
2023-02-09T14:03:12.733Z,3.75
2023-02-09T14:05:43.415Z,3.88
2023-02-09T14:08:12.197Z,3.92
2023-02-09T14:10:39.513Z,5.63
2023-02-09T14:13:39.395Z,4.88
2023-02-09T14:16:07.552Z,5.40
2023-02-09T14:18:48.349Z,5.43
2023-02-09T14:21:20.752Z,6.00
2023-02-09T14:24:12.749Z,5.97
2023-02-09T14:26:50.308Z,6.07
2023-02-09T14:29:35.093Z,6.40
2023-02-09T14:32:32.065Z,5.15
2023-02-09T14:35:22.331Z,4.93
2023-02-09T14:37:50.672Z,6.23
2023-02-09T14:40:37.627Z,6.82
2023-02-09T14:43:11.299Z,6.68
2023-02-09T14:45:47.176Z,8.45
2023-02-09T14:48:22.762Z,8.40
2023-02-09T14:50:51.282Z,5.17
2023-02-09T14:53:19.009Z,8.52
2023-02-09T14:55:46.746Z,8.38
2023-02-09T14:58:27.586Z,9.30
2023-02-09T15:00:56.734Z,17.20
2023-02-09T15:03:24.117Z,16.43
2023-02-09T15:05:56.969Z,8.85
2023-02-09T15:08:24.828Z,5.80
2023-02-09T15:10:56.699Z,6.32
2023-02-09T15:13:24.017Z,8.20
2023-02-09T15:15:51.306Z,9.53
2023-02-09T15:18:20.308Z,7.47
2023-02-09T15:20:47.587Z,6.22
2023-02-09T15:23:15.057Z,8.00
2023-02-09T15:25:42.451Z,7.68
2023-02-09T15:28:28.734Z,3.63
2023-02-09T15:30:56.986Z,10.52
2023-02-09T15:33:28.042Z,9.32
2023-02-09T15:35:58.889Z,8.65
2023-02-09T15:38:27.873Z,7.45
2023-02-09T15:41:13.990Z,9.57
2023-02-09T15:43:59.886Z,7.13
2023-02-09T15:46:45.633Z,8.18
2023-02-09T15:49:13.121Z,7.75
2023-02-09T15:51:41.351Z,8.70
2023-02-09T15:54:16.891Z,9.20
2023-02-09T15:56:44.377Z,9.77
2023-02-09T15:59:20.065Z,8.82
2023-02-09T16:01:47.559Z,8.93
2023-02-09T16:04:15.146Z,10.75
2023-02-09T16:06:48.836Z,10.40
2023-02-09T16:09:22.000Z,9.98
2023-02-09T16:11:49.510Z,11.40
2023-02-09T16:14:20.625Z,11.07
2023-02-09T16:16:48.327Z,11.00
2023-02-09T16:19:16.970Z,11.47
2023-02-09T16:21:47.962Z,11.85
2023-02-09T16:24:24.014Z,11.95
2023-02-09T16:26:51.416Z,13.75
2023-02-09T16:29:18.715Z,13.70
2023-02-09T16:31:46.136Z,14.67
2023-02-09T16:34:15.740Z,16.38
2023-02-09T16:36:43.249Z,21.00
2023-02-09T16:39:18.273Z,27.92
2023-02-09T16:41:52.933Z,26.63
2023-02-09T16:44:23.991Z,27.17
2023-02-09T16:46:53.835Z,29.60
2023-02-09T16:49:39.977Z,28.70
2023-02-09T16:52:27.618Z,24.75
2023-02-09T16:54:56.971Z,20.17
2023-02-09T16:57:24.726Z,18.37
2023-02-09T16:59:52.608Z,21.02
2023-02-09T17:02:32.207Z,21.55
2023-02-09T17:04:59.859Z,26.10
2023-02-09T17:07:30.523Z,26.23
2023-02-09T17:09:58.127Z,30.23
2023-02-09T17:12:25.417Z,31.20
2023-02-09T17:14:52.818Z,31.48
2023-02-09T17:17:20.903Z,29.10
2023-02-09T17:19:48.489Z,27.35
2023-02-09T17:22:15.842Z,26.27
2023-02-09T17:24:43.272Z,24.88
2023-02-09T17:27:10.662Z,24.48
2023-02-09T17:29:38.054Z,20.13
2023-02-09T17:32:05.580Z,20.30
2023-02-09T17:34:33.177Z,18.23
2023-02-09T17:37:00.530Z,19.98
2023-02-09T17:39:29.919Z,20.35
2023-02-09T17:41:58.921Z,19.95
2023-02-09T17:44:43.693Z,21.20
2023-02-09T17:47:16.767Z,27.47
2023-02-09T17:49:44.292Z,22.02
2023-02-09T17:52:18.362Z,17.30
2023-02-09T17:54:46.082Z,18.77
2023-02-09T17:57:17.232Z,19.48
2023-02-09T17:59:46.202Z,17.37
2023-02-09T18:02:17.870Z,17.83
2023-02-09T18:04:45.570Z,18.58
2023-02-09T18:07:14.607Z,16.88
2023-02-09T18:09:41.947Z,17.67
2023-02-09T18:12:22.966Z,14.90
2023-02-09T18:14:50.404Z,13.55
2023-02-09T18:17:17.801Z,11.70
2023-02-09T18:19:45.378Z,12.07
2023-02-09T18:22:14.706Z,12.27
2023-02-09T18:24:42.092Z,12.57
2023-02-09T18:27:17.196Z,12.15
2023-02-09T18:29:44.614Z,12.95
2023-02-09T18:32:13.206Z,13.40
2023-02-09T18:34:40.712Z,14.15
2023-02-09T18:37:08.034Z,14.40
2023-02-09T18:39:38.727Z,14.65
2023-02-09T18:42:07.727Z,13.30
2023-02-09T18:44:35.082Z,12.50
2023-02-09T18:47:02.558Z,13.88
2023-02-09T18:49:30.153Z,23.07
2023-02-09T18:51:58.988Z,17.05
2023-02-09T18:54:28.938Z,18.55
2023-02-09T18:56:56.515Z,13.57
2023-02-09T18:59:27.871Z,12.70
2023-02-09T19:01:55.339Z,12.13
2023-02-09T19:04:24.931Z,12.05
2023-02-09T19:06:52.352Z,11.73
2023-02-09T19:09:19.723Z,12.10
2023-02-09T19:11:47.190Z,12.07
2023-02-09T19:14:33.130Z,12.70
2023-02-09T19:17:00.537Z,13.52
2023-02-09T19:19:27.899Z,14.00
2023-02-09T19:21:56.950Z,14.35
2023-02-09T19:24:24.400Z,15.43
2023-02-09T19:26:51.766Z,16.27
2023-02-09T19:29:19.143Z,16.02
2023-02-09T19:31:46.677Z,16.27
2023-02-09T19:34:13.964Z,20.13
2023-02-09T19:36:41.402Z,18.80
2023-02-09T19:39:08.700Z,18.67
2023-02-09T19:41:36.125Z,20.05
2023-02-09T19:44:04.510Z,23.25
2023-02-09T19:46:32.394Z,23.10
2023-02-09T19:48:59.811Z,23.30
2023-02-09T19:51:27.247Z,24.13
2023-02-09T19:53:54.595Z,25.33
2023-02-09T19:56:23.556Z,24.15
2023-02-09T19:58:51.161Z,22.40
2023-02-09T20:01:18.888Z,23.25
2023-02-09T20:03:48.167Z,22.30
2023-02-09T20:06:15.941Z,21.27
2023-02-09T20:08:43.386Z,24.73
2023-02-09T20:11:13.769Z,23.48
2023-02-09T20:13:41.203Z,20.35
2023-02-09T20:16:10.062Z,18.60
2023-02-09T20:18:37.668Z,16.77
2023-02-09T20:21:08.625Z,16.30
2023-02-09T20:23:37.074Z,15.88
2023-02-09T20:26:33.118Z,15.45
2023-02-09T20:29:02.025Z,14.43
2023-02-09T20:31:32.739Z,16.77
2023-02-09T20:34:01.058Z,18.48
2023-02-09T20:36:28.465Z,18.33
2023-02-09T20:38:56.227Z,16.33
2023-02-09T20:41:23.565Z,15.93
2023-02-09T20:44:09.559Z,15.32
2023-02-09T20:46:55.540Z,17.27
2023-02-09T20:49:24.142Z,16.05
2023-02-09T20:51:51.522Z,16.08
2023-02-09T20:54:18.944Z,17.07
2023-02-09T20:56:46.303Z,17.17
2023-02-09T20:59:14.356Z,17.67
2023-02-09T21:01:42.041Z,16.63
2023-02-09T21:04:09.918Z,15.80
2023-02-09T21:06:37.557Z,14.47
2023-02-09T21:09:07.161Z,16.05
2023-02-09T21:11:34.861Z,14.95
2023-02-09T21:14:02.151Z,12.68
2023-02-09T21:16:30.888Z,14.95
2023-02-09T21:18:58.704Z,12.77
2023-02-09T21:21:27.225Z,14.00
2023-02-09T21:23:54.605Z,12.93
2023-02-09T21:26:24.834Z,11.80
2023-02-09T21:28:56.279Z,12.50
2023-02-09T21:31:25.302Z,11.23
2023-02-09T21:33:52.638Z,11.98
2023-02-09T21:36:20.043Z,12.65
2023-02-09T21:38:47.350Z,12.75
2023-02-09T21:41:35.994Z,10.63
2023-02-09T21:44:03.745Z,11.73
2023-02-09T21:46:31.110Z,11.80
2023-02-09T21:48:58.470Z,12.02
2023-02-09T21:51:25.763Z,12.30
2023-02-09T21:53:53.272Z,12.65
2023-02-09T21:56:20.588Z,11.23
2023-02-09T21:58:47.982Z,11.05
2023-02-09T22:01:15.297Z,12.45
2023-02-09T22:03:42.819Z,9.98
2023-02-09T22:06:10.186Z,10.38
2023-02-09T22:08:37.764Z,10.33
2023-02-09T22:11:06.178Z,10.38
2023-02-09T22:13:33.650Z,10.40
2023-02-09T22:16:06.191Z,10.75
2023-02-09T22:18:33.989Z,11.32
2023-02-09T22:21:01.412Z,10.63
2023-02-09T22:23:28.762Z,10.43
2023-02-09T22:26:00.125Z,9.98
2023-02-09T22:28:28.002Z,11.55
2023-02-09T22:30:55.508Z,10.40
2023-02-09T22:33:23.086Z,11.40
2023-02-09T22:35:50.366Z,9.80
2023-02-09T22:38:17.752Z,11.52
2023-02-09T22:40:45.055Z,11.40
2023-02-09T22:43:12.385Z,10.95
2023-02-09T22:45:39.686Z,9.90
2023-02-09T22:48:07.124Z,10.40
2023-02-09T22:50:34.443Z,11.15
2023-02-09T22:53:01.795Z,10.23
2023-02-09T22:55:29.063Z,9.70
2023-02-09T22:57:56.488Z,8.57
2023-02-09T23:00:23.754Z,8.80
2023-02-09T23:02:51.130Z,9.20
2023-02-09T23:05:18.487Z,8.88
2023-02-09T23:07:46.433Z,7.80
2023-02-09T23:10:13.796Z,7.40
2023-02-09T23:12:41.170Z,8.93
2023-02-09T23:15:08.779Z,9.07
2023-02-09T23:17:36.158Z,9.40
2023-02-09T23:20:03.580Z,9.40
2023-02-09T23:22:30.928Z,11.63
2023-02-09T23:24:59.682Z,10.00
2023-02-09T23:27:28.739Z,7.50
2023-02-09T23:29:56.050Z,10.10
2023-02-09T23:32:23.391Z,9.73
2023-02-09T23:34:50.701Z,7.70
2023-02-09T23:37:23.602Z,8.98
2023-02-09T23:40:02.278Z,10.50
2023-02-09T23:42:29.531Z,9.50
2023-02-09T23:44:57.139Z,9.77
2023-02-09T23:47:24.410Z,8.03
2023-02-09T23:49:51.759Z,8.45
2023-02-09T23:52:19.046Z,6.95
2023-02-09T23:54:46.525Z,6.93
2023-02-09T23:57:13.824Z,7.18
2023-02-09T23:59:41.168Z,7.60
